createdAt,value
2019-03-01T00:02:47.290Z,17.50
2019-03-01T00:13:15.927Z,19.90
2019-03-01T00:23:40.009Z,16.43
2019-03-01T00:34:07.903Z,15.70
2019-03-01T00:44:18.527Z,12.33
2019-03-01T00:54:19.572Z,11.23
2019-03-01T01:04:20.633Z,12.77
2019-03-01T01:14:21.621Z,11.13
2019-03-01T01:24:22.416Z,15.07
2019-03-01T01:34:23.153Z,12.97
2019-03-01T01:44:24.336Z,13.07
2019-03-01T01:54:26.032Z,14.13
2019-03-01T02:04:26.986Z,10.63
2019-03-01T02:14:27.684Z,11.83
2019-03-01T02:24:28.637Z,6.70
2019-03-01T02:34:29.611Z,6.90
2019-03-01T02:44:30.629Z,6.10
2019-03-01T02:54:31.613Z,3.67
2019-03-01T03:04:32.754Z,6.10
2019-03-01T03:14:33.458Z,6.63
2019-03-01T03:24:35.344Z,6.73
2019-03-01T03:34:36.080Z,5.67
2019-03-01T03:44:37.083Z,7.80
2019-03-01T03:54:37.813Z,6.20
2019-03-01T04:04:38.475Z,4.57
2019-03-01T04:14:39.242Z,7.00
2019-03-01T04:24:40.226Z,5.00
2019-03-01T04:34:41.225Z,6.70
2019-03-01T04:44:41.944Z,7.03
2019-03-01T04:54:45.449Z,3.63
2019-03-01T05:04:52.792Z,6.23
2019-03-01T05:15:05.675Z,5.03
2019-03-01T05:25:19.897Z,6.53
2019-03-01T05:35:16.540Z,7.83
2019-03-01T05:45:26.202Z,7.03
2019-03-01T05:55:27.154Z,6.77
2019-03-01T06:05:27.980Z,6.03
2019-03-01T06:15:48.078Z,4.40
2019-03-01T06:26:09.230Z,7.37
2019-03-01T06:36:22.771Z,5.57
2019-03-01T06:46:39.285Z,9.03
2019-03-01T06:56:40.037Z,8.27
2019-03-01T07:06:40.874Z,6.63
2019-03-01T07:16:41.505Z,5.67
2019-03-01T07:26:43.920Z,8.83
2019-03-01T07:36:44.969Z,8.83
2019-03-01T07:46:53.220Z,7.77
2019-03-01T07:56:53.484Z,6.33
2019-03-01T08:06:54.646Z,7.50
2019-03-01T08:16:56.057Z,10.00
2019-03-01T08:26:59.198Z,8.93
2019-03-01T08:37:02.470Z,8.43
2019-03-01T08:47:06.930Z,8.73
2019-03-01T08:57:07.700Z,12.77
2019-03-01T09:07:08.640Z,11.00
2019-03-01T09:17:09.633Z,6.47
2019-03-01T09:27:10.476Z,5.07
2019-03-01T09:37:11.466Z,4.87
2019-03-01T09:47:12.462Z,8.70
2019-03-01T09:57:15.614Z,13.30
2019-03-01T10:07:16.084Z,12.40
2019-03-01T10:17:16.841Z,17.53
2019-03-01T10:27:17.746Z,17.07
2019-03-01T10:37:18.755Z,21.37
2019-03-01T10:47:19.999Z,30.63
2019-03-01T10:57:20.706Z,30.47
2019-03-01T11:07:21.616Z,38.13
2019-03-01T11:17:22.290Z,45.60
2019-03-01T11:27:23.168Z,55.33
2019-03-01T11:37:24.068Z,58.43
2019-03-01T11:47:25.643Z,72.20
2019-03-01T11:57:26.322Z,71.17
2019-03-01T12:07:27.052Z,79.73
2019-03-01T12:17:27.807Z,92.00
2019-03-01T12:27:28.735Z,99.67
2019-03-01T12:37:29.408Z,123.30
2019-03-01T12:47:30.144Z,144.73
2019-03-01T12:57:30.812Z,149.60
2019-03-01T13:07:31.638Z,143.90
2019-03-01T13:17:33.758Z,119.70
2019-03-01T13:27:39.448Z,115.97
2019-03-01T13:37:40.119Z,116.63
2019-03-01T13:47:43.947Z,122.37
2019-03-01T13:57:46.003Z,128.07
2019-03-01T14:07:55.127Z,129.43
2019-03-01T14:17:51.894Z,117.47
2019-03-01T14:27:56.582Z,88.67
2019-03-01T14:38:00.503Z,79.77
2019-03-01T14:48:01.234Z,80.90
2019-03-01T14:58:31.026Z,81.80
2019-03-01T15:08:31.860Z,78.07
2019-03-01T15:29:14.486Z,78.87
2019-03-01T15:39:16.673Z,74.97
2019-03-01T15:49:23.721Z,82.67
2019-03-01T15:59:28.316Z,80.47
2019-03-01T16:09:29.337Z,81.17
2019-03-01T16:19:50.430Z,90.00
2019-03-01T16:29:51.090Z,93.37
2019-03-01T16:39:56.155Z,96.83
2019-03-01T16:49:58.939Z,110.00
2019-03-01T16:59:59.839Z,90.40
2019-03-01T17:10:00.556Z,85.73
2019-03-01T17:20:07.313Z,71.47
2019-03-01T17:30:17.839Z,68.20
2019-03-01T17:40:19.069Z,61.77
2019-03-01T17:50:19.763Z,52.60
2019-03-01T18:00:26.662Z,72.20
2019-03-01T18:10:28.726Z,52.27
2019-03-01T18:20:30.316Z,49.80
2019-03-01T18:30:32.655Z,48.50
2019-03-01T18:40:33.591Z,53.17
2019-03-01T18:50:38.410Z,52.87
2019-03-01T19:00:41.650Z,50.93
2019-03-01T19:10:42.347Z,54.07
2019-03-01T19:20:46.925Z,52.73
2019-03-01T19:30:49.045Z,44.93
2019-03-01T19:40:50.279Z,36.37
2019-03-01T19:50:50.985Z,40.40
2019-03-01T20:00:51.635Z,38.03
2019-03-01T20:10:52.529Z,32.87
2019-03-01T20:20:53.413Z,36.00
2019-03-01T20:30:54.099Z,40.30
2019-03-01T20:40:54.848Z,40.37
2019-03-01T20:50:55.766Z,43.53
2019-03-01T21:00:58.829Z,52.37
2019-03-01T21:11:00.309Z,46.00
2019-03-01T21:21:01.004Z,45.27
2019-03-01T21:31:02.037Z,44.83
2019-03-01T21:41:02.764Z,42.40
2019-03-01T21:51:03.670Z,41.90
2019-03-01T22:01:05.824Z,41.10
2019-03-01T22:11:06.935Z,40.93
2019-03-01T22:21:33.998Z,44.40
2019-03-01T22:31:35.463Z,46.73
2019-03-01T22:41:39.326Z,46.43
2019-03-01T22:51:39.301Z,49.23
2019-03-01T23:01:40.246Z,40.50
2019-03-01T23:11:41.259Z,50.67
2019-03-01T23:21:42.037Z,41.13
2019-03-01T23:31:43.021Z,39.33
2019-03-01T23:41:46.394Z,39.13
2019-03-01T23:51:47.055Z,41.83
